sensor_id;sensor_type;location;lat;lon;timestamp;temperature;humidity
51007;DHT22;37034;47.886;-3.904;2023-11-21T00:00:14;13.70;99.90
51007;DHT22;37034;47.886;-3.904;2023-11-21T00:02:41;13.80;99.90
51007;DHT22;37034;47.886;-3.904;2023-11-21T00:05:08;13.80;99.90
51007;DHT22;37034;47.886;-3.904;2023-11-21T00:07:35;13.70;99.90
51007;DHT22;37034;47.886;-3.904;2023-11-21T00:10:02;13.60;99.90
51007;DHT22;37034;47.886;-3.904;2023-11-21T00:12:28;13.50;99.90
51007;DHT22;37034;47.886;-3.904;2023-11-21T00:14:55;13.50;99.90
51007;DHT22;37034;47.886;-3.904;2023-11-21T00:17:20;13.50;99.90
51007;DHT22;37034;47.886;-3.904;2023-11-21T00:19:46;13.50;99.90
51007;DHT22;37034;47.886;-3.904;2023-11-21T00:22:12;13.50;99.90
51007;DHT22;37034;47.886;-3.904;2023-11-21T00:24:37;13.60;99.90
51007;DHT22;37034;47.886;-3.904;2023-11-21T00:27:03;13.70;99.90
51007;DHT22;37034;47.886;-3.904;2023-11-21T00:29:29;13.60;99.90
51007;DHT22;37034;47.886;-3.904;2023-11-21T00:31:54;13.60;99.90
51007;DHT22;37034;47.886;-3.904;2023-11-21T00:34:20;13.50;99.90
51007;DHT22;37034;47.886;-3.904;2023-11-21T00:36:46;13.50;99.90
51007;DHT22;37034;47.886;-3.904;2023-11-21T00:39:11;13.60;99.90
51007;DHT22;37034;47.886;-3.904;2023-11-21T00:41:37;13.60;99.90
51007;DHT22;37034;47.886;-3.904;2023-11-21T00:44:03;13.60;99.90
51007;DHT22;37034;47.886;-3.904;2023-11-21T00:46:29;13.60;99.90
51007;DHT22;37034;47.886;-3.904;2023-11-21T00:48:55;13.60;99.90
51007;DHT22;37034;47.886;-3.904;2023-11-21T00:51:21;13.60;99.90
51007;DHT22;37034;47.886;-3.904;2023-11-21T00:53:47;13.60;99.90
51007;DHT22;37034;47.886;-3.904;2023-11-21T00:56:13;13.60;99.90
51007;DHT22;37034;47.886;-3.904;2023-11-21T00:58:40;13.60;99.90
51007;DHT22;37034;47.886;-3.904;2023-11-21T01:01:12;13.60;99.90
51007;DHT22;37034;47.886;-3.904;2023-11-21T01:03:37;13.50;99.90
51007;DHT22;37034;47.886;-3.904;2023-11-21T01:06:03;13.60;99.90
51007;DHT22;37034;47.886;-3.904;2023-11-21T01:08:33;13.50;99.90
51007;DHT22;37034;47.886;-3.904;2023-11-21T01:10:59;13.50;99.90
51007;DHT22;37034;47.886;-3.904;2023-11-21T01:13:24;13.50;99.90
51007;DHT22;37034;47.886;-3.904;2023-11-21T01:15:55;13.50;99.90
51007;DHT22;37034;47.886;-3.904;2023-11-21T01:18:21;13.40;99.90
51007;DHT22;37034;47.886;-3.904;2023-11-21T01:20:46;13.30;99.90
51007;DHT22;37034;47.886;-3.904;2023-11-21T01:23:13;13.30;99.90
51007;DHT22;37034;47.886;-3.904;2023-11-21T01:25:39;13.30;99.90
51007;DHT22;37034;47.886;-3.904;2023-11-21T01:28:05;13.30;99.90
51007;DHT22;37034;47.886;-3.904;2023-11-21T01:30:31;13.30;99.90
51007;DHT22;37034;47.886;-3.904;2023-11-21T01:32:58;13.30;99.90
51007;DHT22;37034;47.886;-3.904;2023-11-21T01:35:23;13.30;99.90
51007;DHT22;37034;47.886;-3.904;2023-11-21T01:37:49;13.30;99.90
51007;DHT22;37034;47.886;-3.904;2023-11-21T01:40:15;13.30;99.90
51007;DHT22;37034;47.886;-3.904;2023-11-21T01:42:41;13.40;99.90
51007;DHT22;37034;47.886;-3.904;2023-11-21T01:45:09;13.40;99.90
51007;DHT22;37034;47.886;-3.904;2023-11-21T01:47:35;13.40;99.90
51007;DHT22;37034;47.886;-3.904;2023-11-21T01:50:02;13.30;99.90
51007;DHT22;37034;47.886;-3.904;2023-11-21T01:52:30;13.30;99.90
51007;DHT22;37034;47.886;-3.904;2023-11-21T01:54:57;13.40;99.90
51007;DHT22;37034;47.886;-3.904;2023-11-21T01:57:24;13.40;99.90
51007;DHT22;37034;47.886;-3.904;2023-11-21T01:59:53;13.40;99.90
51007;DHT22;37034;47.886;-3.904;2023-11-21T02:02:19;13.40;99.90
51007;DHT22;37034;47.886;-3.904;2023-11-21T02:04:45;13.40;99.90
51007;DHT22;37034;47.886;-3.904;2023-11-21T02:07:11;13.30;99.90
51007;DHT22;37034;47.886;-3.904;2023-11-21T02:09:37;13.40;99.90
51007;DHT22;37034;47.886;-3.904;2023-11-21T02:12:08;13.40;99.90
51007;DHT22;37034;47.886;-3.904;2023-11-21T02:14:37;13.40;99.90
51007;DHT22;37034;47.886;-3.904;2023-11-21T02:17:03;13.40;99.90
51007;DHT22;37034;47.886;-3.904;2023-11-21T02:19:29;13.40;99.90
51007;DHT22;37034;47.886;-3.904;2023-11-21T02:21:57;13.30;99.90
51007;DHT22;37034;47.886;-3.904;2023-11-21T02:24:32;13.30;99.90
51007;DHT22;37034;47.886;-3.904;2023-11-21T02:26:58;13.30;99.90
51007;DHT22;37034;47.886;-3.904;2023-11-21T02:29:24;13.30;99.90
51007;DHT22;37034;47.886;-3.904;2023-11-21T02:31:55;13.30;99.90
51007;DHT22;37034;47.886;-3.904;2023-11-21T02:34:22;13.30;99.90
51007;DHT22;37034;47.886;-3.904;2023-11-21T02:36:48;13.30;99.90
51007;DHT22;37034;47.886;-3.904;2023-11-21T02:39:17;13.30;99.90
51007;DHT22;37034;47.886;-3.904;2023-11-21T02:41:44;13.30;99.90
51007;DHT22;37034;47.886;-3.904;2023-11-21T02:44:09;13.30;99.90
51007;DHT22;37034;47.886;-3.904;2023-11-21T02:46:36;13.30;99.90
51007;DHT22;37034;47.886;-3.904;2023-11-21T02:49:05;13.30;99.90
51007;DHT22;37034;47.886;-3.904;2023-11-21T02:51:32;13.20;99.90
51007;DHT22;37034;47.886;-3.904;2023-11-21T02:53:58;13.30;99.90
51007;DHT22;37034;47.886;-3.904;2023-11-21T02:56:27;13.40;99.90
51007;DHT22;37034;47.886;-3.904;2023-11-21T02:58:55;13.40;99.90
51007;DHT22;37034;47.886;-3.904;2023-11-21T03:01:22;13.40;99.90
51007;DHT22;37034;47.886;-3.904;2023-11-21T03:03:49;13.40;99.90
51007;DHT22;37034;47.886;-3.904;2023-11-21T03:06:17;13.40;99.90
51007;DHT22;37034;47.886;-3.904;2023-11-21T03:08:43;13.40;99.90
51007;DHT22;37034;47.886;-3.904;2023-11-21T03:11:08;13.40;99.90
51007;DHT22;37034;47.886;-3.904;2023-11-21T03:13:34;13.40;99.90
51007;DHT22;37034;47.886;-3.904;2023-11-21T03:16:00;13.40;99.90
51007;DHT22;37034;47.886;-3.904;2023-11-21T03:18:25;13.30;99.90
51007;DHT22;37034;47.886;-3.904;2023-11-21T03:20:52;13.40;99.90
51007;DHT22;37034;47.886;-3.904;2023-11-21T03:23:18;13.40;99.90
51007;DHT22;37034;47.886;-3.904;2023-11-21T03:25:44;13.20;99.90
51007;DHT22;37034;47.886;-3.904;2023-11-21T03:28:10;13.20;99.90
51007;DHT22;37034;47.886;-3.904;2023-11-21T03:30:35;13.20;99.90
51007;DHT22;37034;47.886;-3.904;2023-11-21T03:33:01;13.20;99.90
51007;DHT22;37034;47.886;-3.904;2023-11-21T03:35:27;13.20;99.90
51007;DHT22;37034;47.886;-3.904;2023-11-21T03:37:53;13.30;99.90
51007;DHT22;37034;47.886;-3.904;2023-11-21T03:40:19;13.40;99.90
51007;DHT22;37034;47.886;-3.904;2023-11-21T03:42:46;13.40;99.90
51007;DHT22;37034;47.886;-3.904;2023-11-21T03:45:12;13.50;99.90
51007;DHT22;37034;47.886;-3.904;2023-11-21T03:47:38;13.50;99.90
51007;DHT22;37034;47.886;-3.904;2023-11-21T03:50:05;13.50;99.90
51007;DHT22;37034;47.886;-3.904;2023-11-21T03:52:31;13.50;99.90
51007;DHT22;37034;47.886;-3.904;2023-11-21T03:54:56;13.50;99.90
51007;DHT22;37034;47.886;-3.904;2023-11-21T03:57:22;13.50;99.90
51007;DHT22;37034;47.886;-3.904;2023-11-21T03:59:47;13.50;99.90
51007;DHT22;37034;47.886;-3.904;2023-11-21T04:02:13;13.50;99.90
51007;DHT22;37034;47.886;-3.904;2023-11-21T04:04:39;13.50;99.90
51007;DHT22;37034;47.886;-3.904;2023-11-21T04:07:05;13.50;99.90
51007;DHT22;37034;47.886;-3.904;2023-11-21T04:09:30;13.50;99.90
51007;DHT22;37034;47.886;-3.904;2023-11-21T04:11:56;13.50;99.90
51007;DHT22;37034;47.886;-3.904;2023-11-21T04:14:22;13.50;99.90
51007;DHT22;37034;47.886;-3.904;2023-11-21T04:16:48;13.40;99.90
51007;DHT22;37034;47.886;-3.904;2023-11-21T04:19:14;13.40;99.90
51007;DHT22;37034;47.886;-3.904;2023-11-21T04:21:41;13.40;99.90
51007;DHT22;37034;47.886;-3.904;2023-11-21T04:24:07;13.30;99.90
51007;DHT22;37034;47.886;-3.904;2023-11-21T04:26:33;13.30;99.90
51007;DHT22;37034;47.886;-3.904;2023-11-21T04:28:58;13.30;99.90
51007;DHT22;37034;47.886;-3.904;2023-11-21T04:31:24;13.30;99.90
51007;DHT22;37034;47.886;-3.904;2023-11-21T04:33:50;13.20;99.90
51007;DHT22;37034;47.886;-3.904;2023-11-21T04:36:15;13.20;99.90
51007;DHT22;37034;47.886;-3.904;2023-11-21T04:38:41;13.20;99.90
51007;DHT22;37034;47.886;-3.904;2023-11-21T04:41:08;13.30;99.90
51007;DHT22;37034;47.886;-3.904;2023-11-21T04:43:33;13.20;99.90
51007;DHT22;37034;47.886;-3.904;2023-11-21T04:45:59;13.20;99.90
51007;DHT22;37034;47.886;-3.904;2023-11-21T04:48:25;13.10;99.90
51007;DHT22;37034;47.886;-3.904;2023-11-21T04:50:51;13.00;99.90
51007;DHT22;37034;47.886;-3.904;2023-11-21T04:53:17;13.00;99.90
51007;DHT22;37034;47.886;-3.904;2023-11-21T04:55:43;13.00;99.90
51007;DHT22;37034;47.886;-3.904;2023-11-21T04:58:09;13.00;99.90
51007;DHT22;37034;47.886;-3.904;2023-11-21T05:00:36;13.10;99.90
51007;DHT22;37034;47.886;-3.904;2023-11-21T05:03:02;13.10;99.90
51007;DHT22;37034;47.886;-3.904;2023-11-21T05:05:29;13.10;99.90
51007;DHT22;37034;47.886;-3.904;2023-11-21T05:07:59;13.10;99.90
51007;DHT22;37034;47.886;-3.904;2023-11-21T05:10:24;13.20;99.90
51007;DHT22;37034;47.886;-3.904;2023-11-21T05:12:50;13.20;99.90
51007;DHT22;37034;47.886;-3.904;2023-11-21T05:15:16;13.20;99.90
51007;DHT22;37034;47.886;-3.904;2023-11-21T05:17:46;13.20;99.90
51007;DHT22;37034;47.886;-3.904;2023-11-21T05:20:14;13.30;99.90
51007;DHT22;37034;47.886;-3.904;2023-11-21T05:22:43;13.30;99.90
51007;DHT22;37034;47.886;-3.904;2023-11-21T05:25:09;13.30;99.90
51007;DHT22;37034;47.886;-3.904;2023-11-21T05:27:35;13.30;99.90
51007;DHT22;37034;47.886;-3.904;2023-11-21T05:30:05;13.20;99.90
51007;DHT22;37034;47.886;-3.904;2023-11-21T05:32:32;13.20;99.90
51007;DHT22;37034;47.886;-3.904;2023-11-21T05:34:58;13.10;99.90
51007;DHT22;37034;47.886;-3.904;2023-11-21T05:37:24;13.10;99.90
51007;DHT22;37034;47.886;-3.904;2023-11-21T05:39:52;13.10;99.90
51007;DHT22;37034;47.886;-3.904;2023-11-21T05:42:18;13.00;99.90
51007;DHT22;37034;47.886;-3.904;2023-11-21T05:44:44;13.00;99.90
51007;DHT22;37034;47.886;-3.904;2023-11-21T05:47:10;13.10;99.90
51007;DHT22;37034;47.886;-3.904;2023-11-21T05:49:36;13.10;99.90
51007;DHT22;37034;47.886;-3.904;2023-11-21T05:52:02;13.00;99.90
51007;DHT22;37034;47.886;-3.904;2023-11-21T05:54:28;13.00;99.90
51007;DHT22;37034;47.886;-3.904;2023-11-21T05:56:54;13.00;99.90
51007;DHT22;37034;47.886;-3.904;2023-11-21T05:59:19;13.00;99.90
51007;DHT22;37034;47.886;-3.904;2023-11-21T06:01:46;13.00;99.90
51007;DHT22;37034;47.886;-3.904;2023-11-21T06:04:11;13.00;99.90
51007;DHT22;37034;47.886;-3.904;2023-11-21T06:06:38;13.00;99.90
51007;DHT22;37034;47.886;-3.904;2023-11-21T06:09:04;13.00;99.90
51007;DHT22;37034;47.886;-3.904;2023-11-21T06:11:31;13.00;99.90
51007;DHT22;37034;47.886;-3.904;2023-11-21T06:13:57;13.00;99.90
51007;DHT22;37034;47.886;-3.904;2023-11-21T06:16:23;13.00;99.90
51007;DHT22;37034;47.886;-3.904;2023-11-21T06:18:49;13.00;99.90
51007;DHT22;37034;47.886;-3.904;2023-11-21T06:21:15;13.00;99.90
51007;DHT22;37034;47.886;-3.904;2023-11-21T06:23:42;13.00;99.90
51007;DHT22;37034;47.886;-3.904;2023-11-21T06:26:08;13.00;99.90
51007;DHT22;37034;47.886;-3.904;2023-11-21T06:28:35;13.00;99.90
51007;DHT22;37034;47.886;-3.904;2023-11-21T06:31:02;13.00;99.90
51007;DHT22;37034;47.886;-3.904;2023-11-21T06:33:31;13.00;99.90
51007;DHT22;37034;47.886;-3.904;2023-11-21T06:35:57;13.00;99.90
51007;DHT22;37034;47.886;-3.904;2023-11-21T06:38:22;13.00;99.90
51007;DHT22;37034;47.886;-3.904;2023-11-21T06:40:48;13.10;99.90
51007;DHT22;37034;47.886;-3.904;2023-11-21T06:43:14;13.20;99.90
51007;DHT22;37034;47.886;-3.904;2023-11-21T06:45:40;13.30;99.90
51007;DHT22;37034;47.886;-3.904;2023-11-21T06:48:05;13.20;99.90
51007;DHT22;37034;47.886;-3.904;2023-11-21T06:50:31;13.20;99.90
51007;DHT22;37034;47.886;-3.904;2023-11-21T06:52:57;13.20;99.90
51007;DHT22;37034;47.886;-3.904;2023-11-21T06:55:22;13.20;99.90
51007;DHT22;37034;47.886;-3.904;2023-11-21T06:57:48;13.20;99.90
51007;DHT22;37034;47.886;-3.904;2023-11-21T07:00:15;13.20;99.90
51007;DHT22;37034;47.886;-3.904;2023-11-21T07:02:43;13.10;99.90
51007;DHT22;37034;47.886;-3.904;2023-11-21T07:05:09;13.10;99.90
51007;DHT22;37034;47.886;-3.904;2023-11-21T07:07:35;13.00;99.90
51007;DHT22;37034;47.886;-3.904;2023-11-21T07:10:03;12.90;99.90
51007;DHT22;37034;47.886;-3.904;2023-11-21T07:12:30;12.90;99.90
51007;DHT22;37034;47.886;-3.904;2023-11-21T07:14:56;12.90;99.90
51007;DHT22;37034;47.886;-3.904;2023-11-21T07:17:22;12.90;99.90
51007;DHT22;37034;47.886;-3.904;2023-11-21T07:19:48;12.90;99.90
51007;DHT22;37034;47.886;-3.904;2023-11-21T07:22:15;12.90;99.90
51007;DHT22;37034;47.886;-3.904;2023-11-21T07:24:51;13.00;99.90
51007;DHT22;37034;47.886;-3.904;2023-11-21T07:27:17;12.90;99.90
51007;DHT22;37034;47.886;-3.904;2023-11-21T07:29:42;13.00;99.90
51007;DHT22;37034;47.886;-3.904;2023-11-21T07:32:08;13.00;99.90
51007;DHT22;37034;47.886;-3.904;2023-11-21T07:34:35;13.00;99.90
51007;DHT22;37034;47.886;-3.904;2023-11-21T07:37:01;13.10;99.90
51007;DHT22;37034;47.886;-3.904;2023-11-21T07:39:28;13.10;99.90
51007;DHT22;37034;47.886;-3.904;2023-11-21T07:41:54;13.10;99.90
51007;DHT22;37034;47.886;-3.904;2023-11-21T07:44:19;13.10;99.90
51007;DHT22;37034;47.886;-3.904;2023-11-21T07:46:46;13.10;99.90
51007;DHT22;37034;47.886;-3.904;2023-11-21T07:49:12;13.10;99.90
51007;DHT22;37034;47.886;-3.904;2023-11-21T07:51:48;13.10;99.90
51007;DHT22;37034;47.886;-3.904;2023-11-21T07:54:14;13.20;99.90
51007;DHT22;37034;47.886;-3.904;2023-11-21T07:56:41;13.20;99.90
51007;DHT22;37034;47.886;-3.904;2023-11-21T07:59:08;13.20;99.90
51007;DHT22;37034;47.886;-3.904;2023-11-21T08:01:33;13.20;99.90
51007;DHT22;37034;47.886;-3.904;2023-11-21T08:03:59;13.20;99.90
51007;DHT22;37034;47.886;-3.904;2023-11-21T08:06:29;13.20;99.90
51007;DHT22;37034;47.886;-3.904;2023-11-21T08:08:56;13.30;99.90
51007;DHT22;37034;47.886;-3.904;2023-11-21T08:11:22;13.30;99.90
51007;DHT22;37034;47.886;-3.904;2023-11-21T08:13:47;13.30;99.90
51007;DHT22;37034;47.886;-3.904;2023-11-21T08:16:13;13.40;99.90
51007;DHT22;37034;47.886;-3.904;2023-11-21T08:18:39;13.40;99.90
51007;DHT22;37034;47.886;-3.904;2023-11-21T08:21:06;13.50;99.90
51007;DHT22;37034;47.886;-3.904;2023-11-21T08:23:33;13.40;99.90
51007;DHT22;37034;47.886;-3.904;2023-11-21T08:25:59;13.50;99.90
51007;DHT22;37034;47.886;-3.904;2023-11-21T08:28:25;13.50;99.90
51007;DHT22;37034;47.886;-3.904;2023-11-21T08:30:53;13.60;99.90
51007;DHT22;37034;47.886;-3.904;2023-11-21T08:33:22;13.70;99.90
51007;DHT22;37034;47.886;-3.904;2023-11-21T08:35:48;13.70;99.90
51007;DHT22;37034;47.886;-3.904;2023-11-21T08:38:14;13.70;99.90
51007;DHT22;37034;47.886;-3.904;2023-11-21T08:40:40;13.80;99.90
51007;DHT22;37034;47.886;-3.904;2023-11-21T08:43:05;13.80;99.90
51007;DHT22;37034;47.886;-3.904;2023-11-21T08:45:32;13.90;99.90
51007;DHT22;37034;47.886;-3.904;2023-11-21T08:48:00;13.90;99.90
51007;DHT22;37034;47.886;-3.904;2023-11-21T08:50:26;14.00;99.90
51007;DHT22;37034;47.886;-3.904;2023-11-21T08:52:52;14.00;99.90
51007;DHT22;37034;47.886;-3.904;2023-11-21T08:55:18;14.00;99.90
51007;DHT22;37034;47.886;-3.904;2023-11-21T08:57:45;14.00;99.90
51007;DHT22;37034;47.886;-3.904;2023-11-21T09:00:14;14.00;99.90
51007;DHT22;37034;47.886;-3.904;2023-11-21T09:02:42;14.10;99.90
51007;DHT22;37034;47.886;-3.904;2023-11-21T09:05:12;14.20;99.90
51007;DHT22;37034;47.886;-3.904;2023-11-21T09:07:40;14.20;99.90
51007;DHT22;37034;47.886;-3.904;2023-11-21T09:10:07;14.30;99.90
51007;DHT22;37034;47.886;-3.904;2023-11-21T09:12:33;14.30;99.90
51007;DHT22;37034;47.886;-3.904;2023-11-21T09:15:04;14.40;99.90
51007;DHT22;37034;47.886;-3.904;2023-11-21T09:17:31;14.50;99.90
51007;DHT22;37034;47.886;-3.904;2023-11-21T09:19:56;14.50;99.90
51007;DHT22;37034;47.886;-3.904;2023-11-21T09:22:22;14.60;99.90
51007;DHT22;37034;47.886;-3.904;2023-11-21T09:24:53;14.60;99.90
51007;DHT22;37034;47.886;-3.904;2023-11-21T09:27:19;14.60;99.90
51007;DHT22;37034;47.886;-3.904;2023-11-21T09:29:47;14.60;99.90
51007;DHT22;37034;47.886;-3.904;2023-11-21T09:32:13;14.50;99.90
51007;DHT22;37034;47.886;-3.904;2023-11-21T09:34:41;14.60;99.90
51007;DHT22;37034;47.886;-3.904;2023-11-21T09:37:07;14.60;99.90
51007;DHT22;37034;47.886;-3.904;2023-11-21T09:39:33;14.60;99.90
51007;DHT22;37034;47.886;-3.904;2023-11-21T09:42:10;14.70;99.90
51007;DHT22;37034;47.886;-3.904;2023-11-21T09:45:03;14.70;99.90
51007;DHT22;37034;47.886;-3.904;2023-11-21T09:47:30;14.80;99.90
51007;DHT22;37034;47.886;-3.904;2023-11-21T09:49:56;14.90;99.90
51007;DHT22;37034;47.886;-3.904;2023-11-21T09:52:27;14.90;99.90
51007;DHT22;37034;47.886;-3.904;2023-11-21T09:54:53;14.90;99.90
51007;DHT22;37034;47.886;-3.904;2023-11-21T09:57:24;14.80;99.90
51007;DHT22;37034;47.886;-3.904;2023-11-21T09:59:57;14.90;99.90
51007;DHT22;37034;47.886;-3.904;2023-11-21T10:02:33;14.90;99.90
51007;DHT22;37034;47.886;-3.904;2023-11-21T10:05:02;15.00;99.90
51007;DHT22;37034;47.886;-3.904;2023-11-21T10:07:30;15.10;99.90
51007;DHT22;37034;47.886;-3.904;2023-11-21T10:09:57;15.10;99.90
51007;DHT22;37034;47.886;-3.904;2023-11-21T10:12:24;15.20;99.90
51007;DHT22;37034;47.886;-3.904;2023-11-21T10:14:52;15.20;99.90
51007;DHT22;37034;47.886;-3.904;2023-11-21T10:17:20;15.10;99.90
51007;DHT22;37034;47.886;-3.904;2023-11-21T10:19:48;15.00;99.90
51007;DHT22;37034;47.886;-3.904;2023-11-21T10:22:17;15.00;99.90
51007;DHT22;37034;47.886;-3.904;2023-11-21T10:24:43;15.10;99.90
51007;DHT22;37034;47.886;-3.904;2023-11-21T10:27:09;15.10;99.90
51007;DHT22;37034;47.886;-3.904;2023-11-21T10:29:35;15.20;99.90
51007;DHT22;37034;47.886;-3.904;2023-11-21T10:32:04;15.30;99.90
51007;DHT22;37034;47.886;-3.904;2023-11-21T10:34:31;15.40;99.90
51007;DHT22;37034;47.886;-3.904;2023-11-21T10:36:57;15.40;99.90
51007;DHT22;37034;47.886;-3.904;2023-11-21T10:39:23;15.40;99.90
51007;DHT22;37034;47.886;-3.904;2023-11-21T10:42:08;15.40;99.90
51007;DHT22;37034;47.886;-3.904;2023-11-21T10:44:36;15.30;99.90
51007;DHT22;37034;47.886;-3.904;2023-11-21T10:47:03;15.30;99.90
51007;DHT22;37034;47.886;-3.904;2023-11-21T10:49:29;15.30;99.90
51007;DHT22;37034;47.886;-3.904;2023-11-21T10:51:54;15.30;99.90
51007;DHT22;37034;47.886;-3.904;2023-11-21T10:54:22;15.50;99.90
51007;DHT22;37034;47.886;-3.904;2023-11-21T10:56:49;15.60;99.90
51007;DHT22;37034;47.886;-3.904;2023-11-21T10:59:17;15.70;99.90
51007;DHT22;37034;47.886;-3.904;2023-11-21T11:01:46;15.70;99.90
51007;DHT22;37034;47.886;-3.904;2023-11-21T11:04:14;15.60;99.90
51007;DHT22;37034;47.886;-3.904;2023-11-21T11:06:51;15.50;99.90
51007;DHT22;37034;47.886;-3.904;2023-11-21T11:09:18;15.50;99.90
51007;DHT22;37034;47.886;-3.904;2023-11-21T11:11:43;15.40;99.90
51007;DHT22;37034;47.886;-3.904;2023-11-21T11:14:13;15.40;99.90
51007;DHT22;37034;47.886;-3.904;2023-11-21T11:16:40;15.50;99.90
51007;DHT22;37034;47.886;-3.904;2023-11-21T11:19:11;15.60;99.90
51007;DHT22;37034;47.886;-3.904;2023-11-21T11:30:38;15.60;99.90
51007;DHT22;37034;47.886;-3.904;2023-11-21T11:36:00;15.70;99.90
51007;DHT22;37034;47.886;-3.904;2023-11-21T11:38:31;15.80;99.90
51007;DHT22;37034;47.886;-3.904;2023-11-21T11:41:04;15.90;99.90
51007;DHT22;37034;47.886;-3.904;2023-11-21T11:43:33;15.80;99.90
51007;DHT22;37034;47.886;-3.904;2023-11-21T11:46:08;15.90;99.90
51007;DHT22;37034;47.886;-3.904;2023-11-21T11:48:40;15.80;99.90
51007;DHT22;37034;47.886;-3.904;2023-11-21T11:51:10;15.80;99.90
51007;DHT22;37034;47.886;-3.904;2023-11-21T11:53:41;15.90;99.90
51007;DHT22;37034;47.886;-3.904;2023-11-21T11:58:53;16.00;99.90
51007;DHT22;37034;47.886;-3.904;2023-11-21T12:01:20;16.00;99.90
51007;DHT22;37034;47.886;-3.904;2023-11-21T12:06:34;16.10;99.90
51007;DHT22;37034;47.886;-3.904;2023-11-21T12:09:03;16.10;99.90
51007;DHT22;37034;47.886;-3.904;2023-11-21T12:11:32;16.10;99.90
51007;DHT22;37034;47.886;-3.904;2023-11-21T12:13:58;16.00;99.90
51007;DHT22;37034;47.886;-3.904;2023-11-21T12:16:25;16.00;99.90
51007;DHT22;37034;47.886;-3.904;2023-11-21T12:18:54;16.00;99.90
51007;DHT22;37034;47.886;-3.904;2023-11-21T12:21:20;16.00;99.90
51007;DHT22;37034;47.886;-3.904;2023-11-21T12:23:47;16.10;99.90
51007;DHT22;37034;47.886;-3.904;2023-11-21T12:26:13;15.90;99.90
51007;DHT22;37034;47.886;-3.904;2023-11-21T12:28:39;15.80;99.90
51007;DHT22;37034;47.886;-3.904;2023-11-21T12:31:05;16.00;99.90
51007;DHT22;37034;47.886;-3.904;2023-11-21T12:33:33;16.00;99.90
51007;DHT22;37034;47.886;-3.904;2023-11-21T12:35:58;16.10;99.90
51007;DHT22;37034;47.886;-3.904;2023-11-21T12:38:24;16.20;99.90
51007;DHT22;37034;47.886;-3.904;2023-11-21T12:40:50;16.10;99.90
51007;DHT22;37034;47.886;-3.904;2023-11-21T12:43:17;16.10;99.90
51007;DHT22;37034;47.886;-3.904;2023-11-21T12:45:43;16.20;99.90
51007;DHT22;37034;47.886;-3.904;2023-11-21T12:48:09;16.10;99.90
51007;DHT22;37034;47.886;-3.904;2023-11-21T12:50:37;16.10;99.90
51007;DHT22;37034;47.886;-3.904;2023-11-21T12:55:38;16.00;99.90
51007;DHT22;37034;47.886;-3.904;2023-11-21T12:58:05;15.90;99.90
51007;DHT22;37034;47.886;-3.904;2023-11-21T13:00:40;15.90;99.90
51007;DHT22;37034;47.886;-3.904;2023-11-21T13:03:09;15.90;99.90
51007;DHT22;37034;47.886;-3.904;2023-11-21T13:05:38;15.90;99.90
51007;DHT22;37034;47.886;-3.904;2023-11-21T13:08:06;15.90;99.90
51007;DHT22;37034;47.886;-3.904;2023-11-21T13:10:43;16.00;99.90
51007;DHT22;37034;47.886;-3.904;2023-11-21T13:13:11;16.00;99.90
51007;DHT22;37034;47.886;-3.904;2023-11-21T13:15:50;16.10;99.90
51007;DHT22;37034;47.886;-3.904;2023-11-21T13:18:16;16.00;99.90
51007;DHT22;37034;47.886;-3.904;2023-11-21T13:20:43;16.00;99.90
51007;DHT22;37034;47.886;-3.904;2023-11-21T13:23:09;15.90;99.90
51007;DHT22;37034;47.886;-3.904;2023-11-21T13:25:38;15.90;99.90
51007;DHT22;37034;47.886;-3.904;2023-11-21T13:28:06;15.80;99.90
51007;DHT22;37034;47.886;-3.904;2023-11-21T13:30:32;15.70;99.90
51007;DHT22;37034;47.886;-3.904;2023-11-21T13:33:04;15.60;99.90
51007;DHT22;37034;47.886;-3.904;2023-11-21T13:35:39;15.50;99.90
51007;DHT22;37034;47.886;-3.904;2023-11-21T13:38:13;15.50;99.90
51007;DHT22;37034;47.886;-3.904;2023-11-21T13:40:40;15.40;99.90
51007;DHT22;37034;47.886;-3.904;2023-11-21T13:43:12;15.40;99.90
51007;DHT22;37034;47.886;-3.904;2023-11-21T13:45:45;15.20;99.90
51007;DHT22;37034;47.886;-3.904;2023-11-21T13:48:13;15.10;99.90
51007;DHT22;37034;47.886;-3.904;2023-11-21T13:50:40;15.20;99.90
51007;DHT22;37034;47.886;-3.904;2023-11-21T13:53:14;15.10;99.90
51007;DHT22;37034;47.886;-3.904;2023-11-21T13:55:53;15.20;99.90
51007;DHT22;37034;47.886;-3.904;2023-11-21T13:58:23;15.30;99.90
51007;DHT22;37034;47.886;-3.904;2023-11-21T14:01:00;15.30;99.90
51007;DHT22;37034;47.886;-3.904;2023-11-21T14:03:27;15.40;99.90
51007;DHT22;37034;47.886;-3.904;2023-11-21T14:06:10;15.50;99.90
51007;DHT22;37034;47.886;-3.904;2023-11-21T14:08:53;15.50;99.90
51007;DHT22;37034;47.886;-3.904;2023-11-21T14:11:30;15.50;99.90
51007;DHT22;37034;47.886;-3.904;2023-11-21T14:13:56;15.40;99.90
51007;DHT22;37034;47.886;-3.904;2023-11-21T14:16:21;15.40;99.90
51007;DHT22;37034;47.886;-3.904;2023-11-21T14:18:48;15.40;99.90
51007;DHT22;37034;47.886;-3.904;2023-11-21T14:21:29;15.50;99.90
51007;DHT22;37034;47.886;-3.904;2023-11-21T14:23:55;15.50;99.90
51007;DHT22;37034;47.886;-3.904;2023-11-21T14:26:21;15.50;99.90
51007;DHT22;37034;47.886;-3.904;2023-11-21T14:28:49;15.40;99.90
51007;DHT22;37034;47.886;-3.904;2023-11-21T14:31:15;15.30;99.90
51007;DHT22;37034;47.886;-3.904;2023-11-21T14:33:46;15.20;99.90
51007;DHT22;37034;47.886;-3.904;2023-11-21T14:36:11;15.30;99.90
51007;DHT22;37034;47.886;-3.904;2023-11-21T14:38:37;15.30;99.90
51007;DHT22;37034;47.886;-3.904;2023-11-21T14:41:07;15.20;99.90
51007;DHT22;37034;47.886;-3.904;2023-11-21T14:43:37;15.20;99.90
51007;DHT22;37034;47.886;-3.904;2023-11-21T14:46:04;15.20;99.90
51007;DHT22;37034;47.886;-3.904;2023-11-21T14:48:34;15.10;99.90
51007;DHT22;37034;47.886;-3.904;2023-11-21T14:51:11;15.10;99.90
51007;DHT22;37034;47.886;-3.904;2023-11-21T14:53:55;15.10;99.90
51007;DHT22;37034;47.886;-3.904;2023-11-21T14:56:24;15.10;99.90
51007;DHT22;37034;47.886;-3.904;2023-11-21T14:58:57;15.00;99.90
51007;DHT22;37034;47.886;-3.904;2023-11-21T15:01:25;15.10;99.90
51007;DHT22;37034;47.886;-3.904;2023-11-21T15:04:10;15.20;99.90
51007;DHT22;37034;47.886;-3.904;2023-11-21T15:06:47;15.20;99.90
51007;DHT22;37034;47.886;-3.904;2023-11-21T15:09:13;15.30;99.90
51007;DHT22;37034;47.886;-3.904;2023-11-21T15:11:39;15.30;99.90
51007;DHT22;37034;47.886;-3.904;2023-11-21T15:14:05;15.20;99.90
51007;DHT22;37034;47.886;-3.904;2023-11-21T15:16:34;15.20;99.90
51007;DHT22;37034;47.886;-3.904;2023-11-21T15:19:04;15.10;99.90
51007;DHT22;37034;47.886;-3.904;2023-11-21T15:21:30;15.20;99.90
51007;DHT22;37034;47.886;-3.904;2023-11-21T15:23:57;15.10;99.90
51007;DHT22;37034;47.886;-3.904;2023-11-21T15:26:23;15.10;99.90
51007;DHT22;37034;47.886;-3.904;2023-11-21T15:28:49;15.10;99.90
51007;DHT22;37034;47.886;-3.904;2023-11-21T15:31:14;15.10;99.90
51007;DHT22;37034;47.886;-3.904;2023-11-21T15:33:42;15.00;99.90
51007;DHT22;37034;47.886;-3.904;2023-11-21T15:36:08;14.90;99.90